createdAt,value
2022-10-04T00:01:13.289Z,7.75
2022-10-04T00:06:21.593Z,7.68
2022-10-04T00:11:35.212Z,7.76
2022-10-04T00:16:40.340Z,7.80
2022-10-04T00:21:54.761Z,7.81
2022-10-04T00:27:24.017Z,7.58
2022-10-04T00:32:40.313Z,7.48
2022-10-04T00:38:06.997Z,7.50
2022-10-04T00:43:24.113Z,7.37
2022-10-04T00:48:47.579Z,7.31
2022-10-04T00:53:59.100Z,7.14
2022-10-04T00:59:09.482Z,7.08
2022-10-04T01:04:38.450Z,7.16
2022-10-04T01:09:54.840Z,7.23
2022-10-04T01:15:07.436Z,7.13
2022-10-04T01:20:33.722Z,7.11
2022-10-04T01:25:50.750Z,7.00
2022-10-04T01:30:53.374Z,7.09
2022-10-04T01:35:55.140Z,7.08
2022-10-04T01:41:03.058Z,6.70
2022-10-04T01:46:14.941Z,6.64
2022-10-04T01:51:23.448Z,6.80
2022-10-04T01:56:30.352Z,6.78
2022-10-04T02:01:39.117Z,6.75
2022-10-04T02:06:43.361Z,6.51
2022-10-04T02:11:50.928Z,6.46
2022-10-04T02:16:53.940Z,6.59
2022-10-04T02:21:56.717Z,6.71
2022-10-04T02:26:59.432Z,6.69
2022-10-04T02:32:23.229Z,6.60
2022-10-04T02:37:27.498Z,6.63
2022-10-04T02:42:40.950Z,6.64
2022-10-04T02:47:51.765Z,6.63
2022-10-04T02:53:16.153Z,6.51
2022-10-04T02:58:22.417Z,6.43
2022-10-04T03:03:32.554Z,6.25
2022-10-04T03:08:44.706Z,6.13
2022-10-04T03:13:49.430Z,6.24
2022-10-04T03:18:53.504Z,6.36
2022-10-04T03:23:55.438Z,6.36
2022-10-04T03:28:58.828Z,6.26
2022-10-04T03:34:00.844Z,6.05
2022-10-04T03:39:09.393Z,6.19
2022-10-04T03:44:17.920Z,6.35
2022-10-04T03:49:31.809Z,6.26
2022-10-04T03:54:35.123Z,6.15
2022-10-04T03:59:37.533Z,6.21
2022-10-04T04:05:17.179Z,6.22
2022-10-04T04:10:29.679Z,6.30
2022-10-04T04:15:33.834Z,6.18
2022-10-04T04:20:38.322Z,6.05
2022-10-04T04:25:43.281Z,6.13
2022-10-04T04:30:48.054Z,6.20
2022-10-04T04:35:55.325Z,6.10
2022-10-04T04:40:57.425Z,5.97
2022-10-04T04:46:25.565Z,5.91
2022-10-04T04:51:24.844Z,5.92
2022-10-04T04:56:28.739Z,5.98
2022-10-04T05:01:46.453Z,6.05
2022-10-04T05:07:16.308Z,6.14
2022-10-04T05:12:21.693Z,6.21
2022-10-04T05:17:26.240Z,6.88
2022-10-04T05:22:29.666Z,7.76
2022-10-04T05:27:35.382Z,8.34
2022-10-04T05:33:06.950Z,8.71
2022-10-04T05:38:16.490Z,8.90
2022-10-04T05:43:35.418Z,9.13
2022-10-04T05:48:41.729Z,8.78
2022-10-04T05:53:44.176Z,8.12
2022-10-04T05:59:02.040Z,7.71
2022-10-04T06:04:24.747Z,7.71
2022-10-04T06:09:47.393Z,7.76
2022-10-04T06:14:49.819Z,7.64
2022-10-04T06:19:57.672Z,7.66
2022-10-04T06:25:18.220Z,7.68
2022-10-04T06:30:20.771Z,7.74
2022-10-04T06:35:22.441Z,7.86
2022-10-04T06:40:46.916Z,7.88
2022-10-04T06:46:07.068Z,7.97
2022-10-04T06:51:20.938Z,8.06
2022-10-04T06:56:28.403Z,7.99
2022-10-04T07:01:47.391Z,8.17
2022-10-04T07:07:35.646Z,8.37
2022-10-04T07:12:41.834Z,8.42
2022-10-04T07:17:46.263Z,8.51
2022-10-04T07:23:34.507Z,8.73
2022-10-04T07:29:01.913Z,8.98
2022-10-04T07:34:15.794Z,9.09
2022-10-04T07:39:24.538Z,9.16
2022-10-04T07:44:32.086Z,9.27
2022-10-04T07:49:39.381Z,9.45
2022-10-04T07:54:50.957Z,9.64
2022-10-04T08:00:02.798Z,9.78
2022-10-04T08:05:24.484Z,9.91
2022-10-04T08:10:26.081Z,10.11
2022-10-04T08:15:37.911Z,10.25
2022-10-04T08:20:54.937Z,10.47
2022-10-04T08:26:13.157Z,10.66
2022-10-04T08:31:24.744Z,10.80
2022-10-04T08:36:53.150Z,10.98
2022-10-04T08:42:15.543Z,11.11
2022-10-04T08:47:40.988Z,11.29
2022-10-04T08:53:10.820Z,11.53
2022-10-04T08:58:14.213Z,11.73
2022-10-04T09:03:58.900Z,11.94
2022-10-04T09:09:40.614Z,12.19
2022-10-04T09:15:15.045Z,12.38
2022-10-04T09:20:39.423Z,12.60
2022-10-04T09:25:44.405Z,12.80
2022-10-04T09:30:54.748Z,13.00
2022-10-04T09:36:11.609Z,13.18
2022-10-04T09:41:38.072Z,13.24
2022-10-04T09:47:02.029Z,13.36
2022-10-04T09:52:40.042Z,13.56
2022-10-04T09:58:11.772Z,13.73
2022-10-04T10:03:38.227Z,13.93
2022-10-04T10:08:48.557Z,14.04
2022-10-04T10:14:12.067Z,14.14
2022-10-04T10:19:30.714Z,14.26
2022-10-04T10:24:47.003Z,14.42
2022-10-04T10:29:59.336Z,14.59
2022-10-04T10:35:06.919Z,14.69
2022-10-04T10:40:16.714Z,14.71
2022-10-04T10:45:45.658Z,14.63
2022-10-04T10:51:10.238Z,14.65
2022-10-04T10:56:30.327Z,14.75
2022-10-04T11:01:50.904Z,14.83
2022-10-04T11:07:18.447Z,14.97
2022-10-04T11:12:55.308Z,15.13
2022-10-04T11:18:33.796Z,15.17
2022-10-04T11:24:05.876Z,15.13
2022-10-04T11:29:16.030Z,15.13
2022-10-04T11:34:50.805Z,15.29
2022-10-04T11:39:58.558Z,15.54
2022-10-04T11:45:08.650Z,15.95
2022-10-04T11:50:30.582Z,16.02
2022-10-04T11:55:54.052Z,15.99
2022-10-04T12:01:01.742Z,16.08
2022-10-04T12:06:22.670Z,16.26
2022-10-04T12:12:08.304Z,16.58
2022-10-04T12:17:36.101Z,16.89
2022-10-04T12:22:56.471Z,16.79
2022-10-04T12:28:20.356Z,16.87
2022-10-04T12:33:44.735Z,17.20
2022-10-04T12:39:07.858Z,17.61
2022-10-04T12:44:31.336Z,17.65
2022-10-04T12:50:08.702Z,17.29
2022-10-04T12:55:38.084Z,17.53
2022-10-04T13:00:45.705Z,17.61
2022-10-04T13:05:47.633Z,17.89
2022-10-04T13:10:58.521Z,18.10
2022-10-04T13:22:11.733Z,18.03
2022-10-04T13:27:18.851Z,17.95
2022-10-04T13:32:28.798Z,17.74
2022-10-04T13:37:49.632Z,17.87
2022-10-04T13:42:51.266Z,18.03
2022-10-04T13:48:26.021Z,17.68
2022-10-04T13:54:21.482Z,17.84
2022-10-04T13:59:49.176Z,17.73
2022-10-04T14:05:20.648Z,18.11
2022-10-04T14:10:34.374Z,18.18
2022-10-04T14:16:03.786Z,18.08
2022-10-04T14:21:33.755Z,17.80
2022-10-04T14:27:06.464Z,17.49
2022-10-04T14:32:13.966Z,17.28
2022-10-04T14:37:38.299Z,17.28
2022-10-04T14:42:58.791Z,17.25
2022-10-04T14:48:26.135Z,17.09
2022-10-04T14:53:40.990Z,17.08
2022-10-04T14:59:11.342Z,17.02
2022-10-04T15:04:34.888Z,16.77
2022-10-04T15:09:49.671Z,16.55
2022-10-04T15:15:24.103Z,16.39
2022-10-04T15:20:28.703Z,16.27
2022-10-04T15:25:39.293Z,16.12
2022-10-04T15:30:55.327Z,16.18
2022-10-04T15:35:56.920Z,15.98
2022-10-04T15:41:06.784Z,15.74
2022-10-04T15:46:27.008Z,15.65
2022-10-04T15:51:50.272Z,15.55
2022-10-04T15:57:20.776Z,15.37
2022-10-04T16:02:44.418Z,15.23
2022-10-04T16:08:08.962Z,14.89
2022-10-04T16:13:21.767Z,14.75
2022-10-04T16:18:48.707Z,14.54
2022-10-04T16:24:19.949Z,14.20
2022-10-04T16:29:29.291Z,13.85
2022-10-04T16:34:45.162Z,13.46
2022-10-04T16:40:06.037Z,13.08
2022-10-04T16:45:07.704Z,12.70
2022-10-04T16:50:11.520Z,12.35
2022-10-04T16:55:31.458Z,12.18
2022-10-04T17:00:36.145Z,12.01
2022-10-04T17:05:48.761Z,11.77
2022-10-04T17:11:09.107Z,11.66
2022-10-04T17:16:21.835Z,11.61
2022-10-04T17:21:23.713Z,11.35
2022-10-04T17:26:44.284Z,11.23
2022-10-04T17:31:56.665Z,11.24
2022-10-04T17:37:37.208Z,11.06
2022-10-04T17:43:06.920Z,10.88
2022-10-04T17:48:33.739Z,10.79
2022-10-04T17:53:55.724Z,10.72
2022-10-04T17:58:59.495Z,10.57
2022-10-04T18:04:27.029Z,10.40
2022-10-04T18:09:50.666Z,10.26
2022-10-04T18:15:03.648Z,10.13
2022-10-04T18:20:22.502Z,10.01
2022-10-04T18:25:30.982Z,9.85
2022-10-04T18:30:54.791Z,9.79
2022-10-04T18:36:05.516Z,10.12
2022-10-04T18:41:21.225Z,10.35
2022-10-04T18:46:23.339Z,10.56
2022-10-04T18:51:26.883Z,10.59
2022-10-04T18:56:33.946Z,10.60
2022-10-04T19:02:09.673Z,10.52
2022-10-04T19:07:31.407Z,10.19
2022-10-04T19:13:02.920Z,9.97
2022-10-04T19:18:07.282Z,9.66
2022-10-04T19:23:34.202Z,9.62
2022-10-04T19:28:38.036Z,9.70
2022-10-04T19:34:05.698Z,9.81
2022-10-04T19:39:25.708Z,9.78
2022-10-04T19:44:52.047Z,9.88
2022-10-04T19:50:18.077Z,10.01
2022-10-04T19:55:39.362Z,10.03
2022-10-04T20:00:41.077Z,10.11
2022-10-04T20:05:45.785Z,10.11
2022-10-04T20:10:47.613Z,10.19
2022-10-04T20:15:59.797Z,10.25
2022-10-04T20:21:01.565Z,10.13
2022-10-04T20:26:55.077Z,10.02
2022-10-04T20:31:57.375Z,9.82
2022-10-04T20:37:00.059Z,9.76
2022-10-04T20:42:22.659Z,9.61
2022-10-04T20:47:39.373Z,9.56
2022-10-04T20:52:51.169Z,9.63
2022-10-04T20:57:54.907Z,9.61
2022-10-04T21:03:30.490Z,9.61
2022-10-04T21:08:32.861Z,9.49
2022-10-04T21:13:55.052Z,9.32
2022-10-04T21:19:42.960Z,9.33
2022-10-04T21:24:50.506Z,9.45
2022-10-04T21:29:53.623Z,9.40
2022-10-04T21:34:55.299Z,9.52
2022-10-04T21:39:57.076Z,9.54
2022-10-04T21:44:59.365Z,9.39
2022-10-04T21:50:01.020Z,9.26
2022-10-04T21:55:02.755Z,9.18
2022-10-04T22:00:05.334Z,9.17
2022-10-04T22:05:14.259Z,9.17
2022-10-04T22:10:16.152Z,9.23
2022-10-04T22:15:17.976Z,9.20
2022-10-04T22:20:19.828Z,9.02
2022-10-04T22:25:23.219Z,8.97
2022-10-04T22:30:31.060Z,9.03
2022-10-04T22:35:34.627Z,9.05
2022-10-04T22:40:36.925Z,9.11
2022-10-04T22:45:38.693Z,9.06
2022-10-04T22:50:40.429Z,8.90
2022-10-04T22:55:42.712Z,8.71
2022-10-04T23:00:45.030Z,8.77
2022-10-04T23:05:46.720Z,8.77
2022-10-04T23:10:52.647Z,8.64
2022-10-04T23:16:00.514Z,8.60
2022-10-04T23:21:02.532Z,8.55
2022-10-04T23:26:13.269Z,8.42
2022-10-04T23:31:26.059Z,8.12
2022-10-04T23:36:28.454Z,7.91
2022-10-04T23:41:30.132Z,8.05
2022-10-04T23:46:31.729Z,8.18
2022-10-04T23:51:33.567Z,8.29
2022-10-04T23:56:35.341Z,8.35
